Airfield :
LOGIN :

Register | Disclaimer

   EN    FR    IT 

 










Legend :    VFR   Marginal VFR   IFR   Intensive IFR   Very Intensive IFR
Visi :
Ceiling :
>= 8 km
>= 3000ft
5 to 8 km
1000 to 3000 ft
1500m to 5 km
500 to 1000 ft
800 to 1500m
200 to 500 ft
< 800m
< 200 ft
Symbols :   Thunderstorms  Fog  Heavy snow  Heavy precipitations  Wind > 20 kt
SIGMETs :     Misc.  Thunderstorms  Icing  Turbulence  Mountain Waves  Volcanic Ashes







- Airport Elevation : 796 ft
- IATA code : SYT
- Download approach charts


LFLN - Saint-Yan

CURRENT METAR :
  • 280030Z AUTO 25003KT 200V290 CAVOK 19/17 Q1015

EXPIRED METARs :
  • 280000Z AUTO 26006KT 230V290 9999 FEW041 OVC110 19/17 Q1015
  • 272330Z AUTO 28010KT 250V310 9999 FEW038 SCT045 OVC110 19/17 Q1014
  • 272300Z AUTO 25008KT 200V280 9999 -RA FEW028 OVC036 19/17 Q1014
  • 272230Z AUTO 25010KT 220V280 9000 -RA FEW030 BKN035 OVC046 19/17 Q1014
  • 272200Z AUTO 24006KT 190V290 8000 -RA FEW030 SCT035 OVC044 19/18 Q1014 NOSIG
  • 272130Z AUTO 26009KT 9000 -RA FEW037 BKN045 BKN052 19/17 Q1014 NOSIG

TAF TAF LFLN
Valid from the 27 at 18:00 until the 28 at 03:00 UTC


271700Z 2718/2803 26006KT 9999 SCT035 SCT050
TEMPO 2718/2722 4000 SHRA SCT030TCU
No reported NOTAMs for that airfield.



MET'MAP, your aeronautical weather chart ! - Copyright ORBIFLY December 2007 - Disclaimer

ORBIFLY MET'MAP TEAM :

Programming & Development : Alexandra Zaïnal
Concept & Development : Baudouin d'Aumeries
Co-Development & Prog : Marc-Olivier Méhu
Technical & hardware support : Manuel Goepfert

Contact : metmap@orbifly.com




SOURCES & CREDITS :

   NOAA